Time;durP1;ratioP1;P1;durP2;ratioP2;P2;SDS_P1;SDS_P2;PMS_P1;PMS_P2;Temp;Humidity;BMP_temperature;BMP_pressure;BME280_temperature;BME280_humidity;BME280_pressure;Samples;Min_cycle;Max_cycle;Signal;HPM_P1;HPM_P2
2021/12/24 00:10:36;;;;;;;42.25;22.02;;;;;;;-0.56;82.12;98677.16;2053533;86;21026;-73
2021/12/24 06:10:39;;;;;;;15.18;10.35;;;;;;;0.91;85.33;98409.97;2067317;84;21121;-78
2021/12/24 06:13:41;;;;;;;16.57;10.35;;;;;;;0.93;85.45;98411.11;2070090;83;21018;-80
2021/12/24 06:16:50;;;;;;;16.85;10.80;;;;;;;0.91;85.44;98411.77;2074043;82;21334;-77
2021/12/24 06:19:54;;;;;;;16.87;10.70;;;;;;;0.92;85.50;98408.98;2087815;83;21050;-77
2021/12/24 06:22:54;;;;;;;22.05;13.30;;;;;;;0.96;85.57;98408.20;2089931;83;21069;-79
2021/12/24 06:26:00;;;;;;;21.75;13.15;;;;;;;1.04;85.65;98401.76;2086072;83;20998;-77
2021/12/24 06:29:02;;;;;;;17.52;12.50;;;;;;;1.07;85.68;98412.75;2075718;83;21120;-77
2021/12/24 06:32:06;;;;;;;23.10;13.03;;;;;;;1.11;85.71;98410.66;2088697;83;21009;-77
2021/12/24 06:35:09;;;;;;;22.90;14.38;;;;;;;1.13;85.71;98410.03;2077024;83;21094;-78
2021/12/24 06:38:11;;;;;;;15.98;11.03;;;;;;;1.09;85.67;98395.61;2062872;83;21095;-80
2021/12/24 06:41:13;;;;;;;16.05;10.03;;;;;;;1.08;85.77;98396.10;2088109;83;21120;-78
2021/12/24 06:44:14;;;;;;;16.50;9.88;;;;;;;1.09;85.88;98415.20;2057953;83;21102;-74
2021/12/24 06:47:16;;;;;;;14.35;9.68;;;;;;;1.08;85.93;98413.08;2089676;83;21055;-69
2021/12/24 06:50:19;;;;;;;16.32;10.08;;;;;;;1.09;86.00;98412.09;2094139;83;21821;-74
2021/12/24 06:53:20;;;;;;;13.30;9.80;;;;;;;1.09;86.02;98410.80;1981680;87;21042;-72
2021/12/24 06:56:23;;;;;;;14.80;9.83;;;;;;;1.12;86.07;98407.87;2013308;86;21082;-75
2021/12/24 06:59:25;;;;;;;17.23;10.00;;;;;;;1.14;86.07;98415.59;2068624;83;21600;-79
2021/12/24 07:02:26;;;;;;;14.03;9.65;;;;;;;1.17;86.15;98408.75;2077609;83;21022;-76
2021/12/24 07:05:28;;;;;;;19.12;10.53;;;;;;;1.17;86.17;98413.98;2078715;83;21057;-78
2021/12/24 07:08:31;;;;;;;17.05;11.18;;;;;;;1.19;86.29;98417.77;2082783;83;21059;-79
2021/12/24 07:11:33;;;;;;;16.07;10.13;;;;;;;1.21;86.37;98412.73;2081273;83;21026;-76
2021/12/24 07:14:37;;;;;;;15.05;9.68;;;;;;;1.28;86.45;98409.84;2088439;83;21077;-76
2021/12/24 07:17:39;;;;;;;16.73;10.58;;;;;;;1.31;86.43;98413.46;2088469;83;21057;-82
2021/12/24 07:20:41;;;;;;;15.65;10.13;;;;;;;1.35;86.43;98410.05;2080188;83;21029;-82
2021/12/24 07:23:43;;;;;;;18.90;11.28;;;;;;;1.38;86.52;98420.23;2083035;83;21116;-80
2021/12/24 07:26:44;;;;;;;20.32;12.20;;;;;;;1.37;86.53;98414.66;2083154;83;21010;-76
2021/12/24 07:29:46;;;;;;;23.87;14.05;;;;;;;1.39;86.61;98410.11;2081694;83;21113;-84
2021/12/24 07:32:47;;;;;;;16.48;10.68;;;;;;;1.41;86.68;98404.25;2081249;83;21015;-75
2021/12/24 07:35:49;;;;;;;21.42;11.25;;;;;;;1.44;86.72;98408.36;2086471;83;21111;-75
2021/12/24 07:38:52;;;;;;;14.30;10.93;;;;;;;1.45;86.74;98404.27;2076071;83;21351;-75
2021/12/24 07:46:22;;;;;;;20.15;12.50;;;;;;;1.50;86.96;98401.22;2078897;84;21057;-76
2021/12/24 08:05:08;;;;;;;33.08;20.27;;;;;;;1.78;87.27;98401.44;2016209;87;21224;-73
2021/12/24 08:23:56;;;;;;;21.07;12.53;;;;;;;1.90;87.40;98366.69;2016020;87;21289;-70
2021/12/24 09:01:42;;;;;;;12.15;6.97;;;;;;;2.39;87.49;98349.94;2057372;84;21234;-71
2021/12/24 09:05:54;;;;;;;10.50;7.15;;;;;;;2.39;87.46;98342.09;2071584;84;21470;-72
2021/12/24 09:19:48;;;;;;;8.58;6.03;;;;;;;2.38;87.61;98338.31;2073879;83;21372;-72
2021/12/24 09:22:48;;;;;;;8.48;5.90;;;;;;;2.48;87.64;98348.17;2070943;82;21670;-72
2021/12/24 09:25:50;;;;;;;8.25;5.78;;;;;;;2.50;87.53;98348.81;2065393;83;21086;-71
2021/12/24 09:28:51;;;;;;;10.82;7.87;;;;;;;2.51;87.43;98340.00;2070688;83;21173;-72
2021/12/24 09:31:54;;;;;;;13.20;8.45;;;;;;;2.52;87.40;98344.25;2087498;83;21084;-72
2021/12/24 09:34:57;;;;;;;17.02;8.88;;;;;;;2.55;87.39;98345.73;2066323;83;21100;-72
2021/12/24 09:37:59;;;;;;;13.32;8.45;;;;;;;2.56;87.38;98342.13;2070316;83;21027;-68
2021/12/24 09:41:01;;;;;;;14.78;8.63;;;;;;;2.55;87.33;98342.62;2080463;82;21081;-69
2021/12/24 09:44:04;;;;;;;18.52;11.22;;;;;;;2.55;87.31;98341.80;2060739;83;21164;-69
2021/12/24 09:47:06;;;;;;;35.17;16.02;;;;;;;2.60;87.39;98344.27;2073462;83;21070;-68
2021/12/24 09:50:13;;;;;;;49.15;19.57;;;;;;;2.65;87.45;98332.84;2091924;83;21029;-70
2021/12/24 09:53:15;;;;;;;19.73;9.95;;;;;;;2.67;87.31;98326.11;2074450;83;21044;-71
2021/12/24 09:56:17;;;;;;;12.55;7.95;;;;;;;2.72;87.35;98311.23;2073439;83;21144;-71
2021/12/24 09:59:19;;;;;;;13.20;8.18;;;;;;;2.80;87.35;98308.64;2075440;82;21492;-71
2021/12/24 10:02:28;;;;;;;13.65;8.05;;;;;;;2.82;87.13;98310.61;2077080;83;21071;-72
2021/12/24 10:05:40;;;;;;;11.95;8.10;;;;;;;2.81;87.08;98305.03;2066008;83;21604;-75
2021/12/24 10:08:42;;;;;;;11.10;7.58;;;;;;;2.84;87.23;98302.08;2086218;83;21132;-71
2021/12/24 10:11:51;;;;;;;10.68;7.42;;;;;;;2.78;86.98;98305.35;2071461;83;21096;-69
2021/12/24 10:14:59;;;;;;;11.12;6.90;;;;;;;2.75;87.05;98306.48;2090014;83;21891;-67
2021/12/24 10:18:08;;;;;;;10.18;6.55;;;;;;;2.75;87.11;98299.13;2081475;82;21091;-69
2021/12/24 10:21:20;;;;;;;8.83;5.72;;;;;;;2.76;87.17;98298.98;2075993;82;21121;-70
2021/12/24 10:24:23;;;;;;;12.45;6.95;;;;;;;2.73;87.14;98295.84;2086388;82;21883;-69
2021/12/24 10:27:31;;;;;;;11.65;7.35;;;;;;;2.76;87.28;98291.13;2090402;83;21054;-70
2021/12/24 10:30:33;;;;;;;14.73;7.60;;;;;;;2.80;87.43;98286.37;2086402;82;21486;-69
2021/12/24 10:33:35;;;;;;;16.45;7.60;;;;;;;2.86;87.53;98280.48;2082011;83;21077;-70
2021/12/24 10:36:54;;;;;;;13.53;7.80;;;;;;;2.92;87.48;98274.59;2075278;82;21085;-68
2021/12/24 10:39:59;;;;;;;16.50;9.08;;;;;;;2.93;87.45;98281.48;2070132;83;21137;-68
2021/12/24 10:43:01;;;;;;;19.50;9.90;;;;;;;2.90;87.37;98277.39;2078213;83;21152;-70
2021/12/24 10:46:16;;;;;;;11.70;7.40;;;;;;;2.90;87.43;98276.55;2072441;83;21138;-70
2021/12/24 10:49:35;;;;;;;13.43;6.87;;;;;;;2.87;87.39;98272.94;2095959;82;21060;-72
2021/12/24 10:52:44;;;;;;;9.50;6.22;;;;;;;2.84;87.42;98274.58;2072396;83;21007;-71
2021/12/24 10:55:52;;;;;;;12.25;7.33;;;;;;;2.83;87.46;98265.09;2085972;83;21109;-71
2021/12/24 10:58:54;;;;;;;13.30;7.60;;;;;;;2.80;87.50;98253.63;2074844;82;21616;-71
2021/12/24 11:02:12;;;;;;;16.15;8.48;;;;;;;2.78;87.50;98254.28;2057834;83;21150;-70
2021/12/24 11:05:42;;;;;;;13.53;8.58;;;;;;;2.79;87.58;98266.38;2075832;83;21056;-70
2021/12/24 11:08:44;;;;;;;15.27;9.40;;;;;;;2.81;87.64;98252.14;2084431;82;21066;-70
2021/12/24 11:11:47;;;;;;;18.95;9.33;;;;;;;2.84;87.72;98254.44;2066082;83;21031;-71
2021/12/24 11:14:49;;;;;;;17.02;11.00;;;;;;;2.89;87.78;98253.95;2064959;83;21666;-70
2021/12/24 11:17:55;;;;;;;16.65;10.75;;;;;;;2.89;87.71;98252.16;2083393;83;21065;-71
2021/12/24 11:21:07;;;;;;;19.80;12.70;;;;;;;2.91;87.64;98259.86;2086687;83;21102;-72
2021/12/24 11:24:10;;;;;;;20.75;13.05;;;;;;;2.86;87.53;98252.98;2083457;82;21921;-73
2021/12/24 11:27:12;;;;;;;20.65;12.82;;;;;;;2.84;87.59;98252.31;2081392;82;21034;-82
2021/12/24 11:30:14;;;;;;;19.42;12.05;;;;;;;2.86;87.71;98256.91;2078838;83;21535;-72
2021/12/24 11:33:20;;;;;;;19.40;13.20;;;;;;;2.86;87.74;98247.24;2070626;83;21830;-73
2021/12/24 11:36:25;;;;;;;20.70;12.63;;;;;;;2.88;87.79;98247.91;2059631;83;21402;-72
2021/12/24 11:39:27;;;;;;;21.17;13.05;;;;;;;2.95;87.90;98237.58;2066987;83;21580;-63
2021/12/24 11:42:33;;;;;;;18.80;12.07;;;;;;;2.98;87.83;98232.01;2083201;83;21172;-69
2021/12/24 11:45:34;;;;;;;30.35;15.90;;;;;;;3.02;87.79;98229.41;2069743;82;21393;-75
2021/12/24 11:48:36;;;;;;;33.88;18.37;;;;;;;3.08;87.80;98213.52;2087145;83;21414;-72
2021/12/24 11:51:41;;;;;;;26.25;15.08;;;;;;;3.12;87.78;98202.52;2075045;83;21096;-71
2021/12/24 11:54:47;;;;;;;23.67;14.03;;;;;;;3.15;87.74;98211.85;2078403;83;21635;-71
2021/12/24 11:58:05;;;;;;;24.90;15.70;;;;;;;3.12;87.59;98209.06;2072900;83;21863;-74
2021/12/24 12:01:07;;;;;;;24.37;14.00;;;;;;;3.12;87.62;98207.75;2088979;82;21141;-75
2021/12/24 12:04:20;;;;;;;27.35;15.48;;;;;;;3.10;87.58;98194.02;2070798;83;21024;-74
2021/12/24 12:07:24;;;;;;;18.48;11.28;;;;;;;3.08;87.61;98194.67;2075308;83;21843;-73
2021/12/24 12:11:03;;;;;;;20.20;11.18;;;;;;;3.09;87.66;98193.67;2091674;82;21401;-74
2021/12/24 12:14:25;;;;;;;18.53;9.50;;;;;;;3.07;87.61;98196.98;2085660;83;21135;-74
2021/12/24 12:17:24;;;;;;;18.02;9.10;;;;;;;3.11;87.75;98191.72;2068515;83;21192;-74
2021/12/24 12:20:44;;;;;;;17.10;9.80;;;;;;;3.10;87.68;98186.16;2074988;83;21799;-75
2021/12/24 12:23:53;;;;;;;17.37;9.73;;;;;;;3.16;87.84;98176.00;2082403;83;21132;-72
2021/12/24 12:26:54;;;;;;;15.65;9.38;;;;;;;3.17;87.92;98170.58;2070936;83;21096;-74
2021/12/24 12:29:56;;;;;;;18.70;10.05;;;;;;;3.20;87.98;98176.80;2070847;83;21091;-74
2021/12/24 12:33:11;;;;;;;20.40;9.88;;;;;;;3.25;88.07;98170.56;2072779;83;21062;-76
2021/12/24 12:36:13;;;;;;;15.58;9.05;;;;;;;3.27;88.12;98172.53;2079968;83;21142;-72
2021/12/24 12:39:28;;;;;;;20.10;11.90;;;;;;;3.29;88.20;98164.48;2084424;83;21521;-77
2021/12/24 12:43:02;;;;;;;20.17;11.07;;;;;;;3.32;88.29;98168.92;2047069;83;22622;-76
2021/12/24 12:46:04;;;;;;;24.07;13.55;;;;;;;3.37;88.43;98168.40;2006109;86;21010;-77
2021/12/24 12:49:10;;;;;;;24.45;13.70;;;;;;;3.45;88.75;98160.51;2001170;86;22380;-75
2021/12/24 12:52:31;;;;;;;17.50;10.82;;;;;;;3.53;88.85;98160.48;2011217;86;21289;-73
2021/12/24 12:55:33;;;;;;;15.58;9.60;;;;;;;3.60;88.88;98161.92;2019634;86;21079;-75
2021/12/24 12:58:35;;;;;;;20.70;11.60;;;;;;;3.69;89.15;98161.39;2014817;85;21122;-76
2021/12/24 13:01:52;;;;;;;20.05;10.43;;;;;;;3.78;89.36;98151.21;2016523;86;21059;-75
2021/12/24 13:05:13;;;;;;;16.62;8.93;;;;;;;3.88;89.42;98157.05;2011965;86;21666;-75
2021/12/24 13:08:22;;;;;;;;;;;;;;;3.95;89.42;98159.32;2008888;86;21888;-78
2021/12/24 13:11:23;;;;;;;12.23;6.97;;;;;;;4.02;89.51;98156.31;2050203;84;20131;-75
2021/12/24 13:14:29;;;;;;;11.88;7.50;;;;;;;4.10;89.79;98154.14;2057579;84;21087;-77
2021/12/24 13:17:36;;;;;;;11.10;6.72;;;;;;;4.18;89.83;98155.41;2010281;86;21579;-77
2021/12/24 13:23:47;;;;;;;8.50;4.97;;;;;;;4.33;89.93;98156.78;1994684;85;21104;-76
2021/12/24 13:26:49;;;;;;;7.62;4.67;;;;;;;4.46;90.15;98157.02;2024233;85;21151;-75
2021/12/24 13:30:14;;;;;;;6.95;3.85;;;;;;;4.60;90.11;98156.76;2021120;85;21104;-76
2021/12/24 13:33:18;;;;;;;7.00;3.67;;;;;;;4.75;90.41;98152.85;2018433;85;21071;-77
2021/12/24 13:36:23;;;;;;;5.95;4.00;;;;;;;4.94;90.53;98154.17;2015690;85;21066;-77
2021/12/24 13:39:24;;;;;;;5.12;3.25;;;;;;;5.03;90.12;98154.41;2012599;86;21923;-77
2021/12/24 13:42:26;;;;;;;5.05;3.40;;;;;;;5.14;90.08;98146.08;2030963;85;21055;-75
2021/12/24 13:45:33;;;;;;;8.20;4.90;;;;;;;5.24;89.94;98164.74;2081604;82;21043;-74
2021/12/24 13:48:45;;;;;;;11.38;5.17;;;;;;;5.29;89.77;98155.28;2074888;83;21149;-75
2021/12/24 13:54:56;;;;;;;6.00;3.45;;;;;;;5.46;89.45;98151.16;2078470;83;21902;-74
2021/12/24 13:58:05;;;;;;;6.30;3.83;;;;;;;5.46;89.21;98148.03;2070179;83;21113;-78
2021/12/24 14:01:09;;;;;;;3.45;2.95;;;;;;;5.48;89.06;98146.05;2080396;83;21023;-75
2021/12/24 14:04:11;;;;;;;5.83;3.15;;;;;;;5.55;89.13;98146.95;2072227;83;21647;-76
2021/12/24 14:07:13;;;;;;;4.22;2.87;;;;;;;5.61;89.11;98146.22;2051284;83;21136;-76
2021/12/24 14:10:23;;;;;;;5.03;3.00;;;;;;;5.70;89.00;98139.55;2067032;83;21030;-77
2021/12/24 14:13:29;;;;;;;7.70;4.20;;;;;;;5.81;88.80;98139.89;2074891;83;21097;-76
2021/12/24 14:16:53;;;;;;;4.80;2.83;;;;;;;5.84;88.47;98142.14;2080939;83;21092;-76
2021/12/24 14:20:02;;;;;;;4.65;2.92;;;;;;;5.85;88.18;98133.74;2066750;83;21047;-77
2021/12/24 14:22:49;;;;;;;4.53;2.62;;;;;;;5.91;87.93;98132.19;2080018;83;21838;-77
2021/12/24 14:25:56;;;;;;;6.33;3.27;;;;;;;5.99;87.61;98132.11;2079988;83;21909;-78
2021/12/24 14:28:57;;;;;;;6.30;3.60;;;;;;;6.01;87.39;98140.14;2064350;83;21057;-78
2021/12/24 14:32:04;;;;;;;8.50;4.70;;;;;;;6.09;87.09;98141.86;2076999;82;21169;-77
2021/12/24 14:35:20;;;;;;;4.92;3.10;;;;;;;6.15;86.83;98143.73;2076684;82;21109;-79
2021/12/24 14:38:25;;;;;;;7.67;3.67;;;;;;;6.19;86.63;98144.17;2059576;83;21127;-79
2021/12/24 14:41:27;;;;;;;6.35;3.45;;;;;;;6.21;86.23;98140.36;2090582;83;21074;-78
2021/12/24 14:44:29;;;;;;;6.80;3.90;;;;;;;6.27;86.06;98137.47;2079628;83;21631;-78
2021/12/24 14:47:31;;;;;;;4.97;3.27;;;;;;;6.25;85.98;98138.99;2068488;82;21823;-78
2021/12/24 14:50:50;;;;;;;5.20;2.83;;;;;;;6.28;85.61;98122.00;2067068;82;21729;-77
2021/12/24 14:53:56;;;;;;;5.08;3.08;;;;;;;6.32;85.43;98127.70;2063275;83;21036;-78
2021/12/24 14:57:02;;;;;;;5.20;3.25;;;;;;;6.36;85.18;98136.34;2071227;83;21156;-77
2021/12/24 15:00:10;;;;;;;7.25;3.40;;;;;;;6.37;84.65;98128.77;2080375;83;21105;-79
2021/12/24 15:03:17;;;;;;;4.53;3.05;;;;;;;6.43;84.77;98130.65;2051984;84;21091;-78
2021/12/24 15:06:27;;;;;;;5.62;3.65;;;;;;;6.44;84.37;98125.68;2067523;83;21623;-77
2021/12/24 15:09:32;;;;;;;5.03;3.67;;;;;;;6.48;84.17;98120.88;2076815;83;21100;-77
2021/12/24 15:12:58;;;;;;;4.90;3.20;;;;;;;6.47;83.99;98120.03;2073313;83;21892;-79
2021/12/24 15:15:56;;;;;;;4.97;3.02;;;;;;;6.53;83.61;98118.97;2075865;83;21022;-78
2021/12/24 15:19:00;;;;;;;6.47;3.58;;;;;;;6.57;83.52;98117.09;2075505;82;21705;-78
2021/12/24 15:22:01;;;;;;;6.33;3.62;;;;;;;6.60;83.03;98118.53;2085375;82;21391;-77
2021/12/24 15:25:05;;;;;;;6.45;3.70;;;;;;;6.61;82.77;98128.06;2093023;82;21331;-78
2021/12/24 15:28:10;;;;;;;5.55;3.52;;;;;;;6.64;83.05;98127.67;2055865;83;21072;-79
2021/12/24 15:31:12;;;;;;;7.87;3.95;;;;;;;6.65;82.33;98121.42;2074353;83;21393;-78
2021/12/24 15:34:14;;;;;;;7.30;4.30;;;;;;;6.69;82.22;98113.44;2071170;82;21041;-78
2021/12/24 15:37:16;;;;;;;5.85;3.55;;;;;;;6.74;82.20;98117.63;2074000;83;21081;-77
2021/12/24 15:40:18;;;;;;;8.33;4.20;;;;;;;6.74;81.55;98107.91;2072887;82;21047;-78
2021/12/24 15:43:19;;;;;;;6.78;4.10;;;;;;;6.82;81.33;98105.63;2082738;83;21679;-78
2021/12/24 15:46:21;;;;;;;9.98;4.30;;;;;;;6.86;81.22;98108.70;2073303;82;21047;-79
2021/12/24 15:49:23;;;;;;;13.18;4.67;;;;;;;6.83;81.06;98117.80;2068407;83;21130;-79
2021/12/24 15:52:24;;;;;;;7.62;4.47;;;;;;;6.83;81.18;98136.76;2074939;83;21314;-79
2021/12/24 15:55:26;;;;;;;10.60;3.60;;;;;;;6.72;81.21;98179.75;2066000;83;21715;-78
2021/12/24 15:58:28;;;;;;;8.75;3.92;;;;;;;6.49;81.03;98177.31;2062017;83;21080;-77
2021/12/24 16:01:29;;;;;;;7.00;2.95;;;;;;;6.07;80.92;98199.14;2076134;83;21074;-78
2021/12/24 16:04:34;;;;;;;3.10;2.37;;;;;;;5.59;81.72;98198.70;2081710;83;21077;-78
2021/12/24 16:07:37;;;;;;;7.10;3.50;;;;;;;5.21;81.97;98215.88;2073873;83;21124;-78
2021/12/24 16:10:39;;;;;;;7.25;3.35;;;;;;;4.90;82.40;98217.30;2075917;83;21592;-78
2021/12/24 16:13:40;;;;;;;10.08;4.70;;;;;;;4.67;82.94;98233.89;2067537;83;21005;-78
2021/12/24 16:16:44;;;;;;;15.60;6.78;;;;;;;4.53;83.02;98240.36;2071863;83;21049;-78
2021/12/24 16:19:46;;;;;;;9.03;4.70;;;;;;;4.36;83.15;98249.64;2078181;83;21077;-78
2021/12/24 16:22:47;;;;;;;13.93;6.85;;;;;;;4.22;83.31;98250.38;2056989;83;21130;-77
2021/12/24 16:25:49;;;;;;;8.13;4.47;;;;;;;4.13;83.53;98256.66;2090352;82;20999;-79
2021/12/24 16:28:53;;;;;;;7.92;4.17;;;;;;;4.05;83.70;98266.70;2072124;82;21064;-78
2021/12/24 16:31:54;;;;;;;7.95;4.50;;;;;;;3.99;83.92;98272.63;2083446;83;21046;-77
2021/12/24 16:35:08;;;;;;;10.28;5.28;;;;;;;3.91;84.13;98286.59;2074242;83;21098;-78
2021/12/24 16:38:10;;;;;;;10.93;5.95;;;;;;;3.82;84.32;98275.30;2074226;83;21125;-78
2021/12/24 16:41:11;;;;;;;7.03;5.05;;;;;;;3.75;84.45;98287.47;2085243;82;21065;-78
2021/12/24 16:44:13;;;;;;;15.70;7.37;;;;;;;3.67;85.28;98299.78;2076651;83;21083;-78
2021/12/24 16:47:14;;;;;;;11.15;6.17;;;;;;;3.57;85.02;98311.25;2082354;82;21628;-77
2021/12/24 16:50:18;;;;;;;7.42;4.37;;;;;;;3.46;85.12;98319.95;2083009;83;21601;-78
2021/12/24 16:53:20;;;;;;;8.45;4.50;;;;;;;3.35;85.17;98325.03;2053649;83;21892;-78
2021/12/24 16:56:21;;;;;;;5.45;3.87;;;;;;;3.23;85.00;98328.48;2085161;82;21040;-79
2021/12/24 16:59:23;;;;;;;7.53;4.33;;;;;;;3.11;84.97;98333.23;2078757;83;21105;-78
2021/12/24 17:02:24;;;;;;;8.35;4.75;;;;;;;2.99;84.93;98338.47;2079905;83;21044;-77
2021/12/24 17:05:27;;;;;;;8.85;4.90;;;;;;;2.88;85.04;98346.64;2066566;83;21151;-78
2021/12/24 17:08:28;;;;;;;8.28;4.30;;;;;;;2.75;85.06;98360.68;2073803;83;21018;-77
2021/12/24 17:11:31;;;;;;;8.40;4.85;;;;;;;2.67;85.04;98366.21;2076930;83;21035;-78
2021/12/24 17:14:37;;;;;;;10.45;5.78;;;;;;;2.57;85.02;98361.61;2060349;83;21152;-78
2021/12/24 17:17:36;;;;;;;8.45;4.97;;;;;;;2.52;85.08;98371.73;2083578;82;21379;-78
2021/12/24 17:20:38;;;;;;;9.85;5.55;;;;;;;2.44;85.12;98395.27;2053433;84;21341;-78
2021/12/24 17:23:41;;;;;;;11.00;5.42;;;;;;;2.34;85.20;98401.13;2075436;83;21398;-78
2021/12/24 17:26:42;;;;;;;8.28;4.17;;;;;;;2.26;85.20;98401.08;2073968;83;21105;-77
2021/12/24 17:29:44;;;;;;;6.20;3.75;;;;;;;2.14;85.31;98402.66;2089212;83;21057;-78
2021/12/24 17:32:46;;;;;;;7.20;3.98;;;;;;;2.07;85.35;98412.58;2076405;83;21022;-77
2021/12/24 17:35:48;;;;;;;6.80;4.00;;;;;;;1.98;85.27;98427.40;2077080;83;21918;-78
2021/12/24 17:38:51;;;;;;;7.58;4.45;;;;;;;1.91;85.25;98419.32;2063126;84;21093;-77
2021/12/24 17:41:53;;;;;;;8.70;4.95;;;;;;;1.83;85.27;98417.14;2076393;83;21113;-78
2021/12/24 17:44:54;;;;;;;17.32;7.97;;;;;;;1.73;85.24;98418.06;2078850;82;21837;-78
2021/12/24 17:47:56;;;;;;;7.90;4.30;;;;;;;1.66;85.33;98439.27;2062431;83;21071;-78
2021/12/24 17:50:58;;;;;;;8.28;3.95;;;;;;;1.60;85.29;98446.87;2090216;82;21143;-78
2021/12/24 17:54:00;;;;;;;7.72;4.45;;;;;;;1.55;85.36;98457.80;2080603;82;21318;-78
2021/12/24 17:57:01;;;;;;;5.70;3.33;;;;;;;1.48;85.19;98462.78;2084498;83;21085;-78
2021/12/24 18:00:08;;;;;;;4.95;3.35;;;;;;;1.43;85.12;98483.31;2080229;83;21366;-76
2021/12/24 18:03:11;;;;;;;8.08;3.75;;;;;;;1.32;85.00;98480.91;2075352;83;21646;-78
2021/12/24 18:06:13;;;;;;;6.50;3.65;;;;;;;1.19;84.95;98493.53;2065103;83;21697;-78
2021/12/24 18:09:15;;;;;;;4.67;3.17;;;;;;;1.05;84.82;98505.30;2087509;83;21540;-75
2021/12/24 18:12:19;;;;;;;7.25;3.45;;;;;;;0.88;84.71;98488.12;2084370;83;21013;-78
2021/12/24 18:15:22;;;;;;;7.25;4.62;;;;;;;0.75;85.03;98504.59;2076425;83;21087;-78
2021/12/24 18:18:24;;;;;;;5.80;3.83;;;;;;;0.62;85.00;98510.15;2079597;83;21084;-78
2021/12/24 18:21:25;;;;;;;6.17;3.98;;;;;;;0.52;85.09;98529.41;2081372;83;21038;-77
2021/12/24 18:24:27;;;;;;;6.00;3.98;;;;;;;0.41;85.12;98546.87;2083584;83;20993;-77
2021/12/24 18:27:29;;;;;;;5.37;3.90;;;;;;;0.34;85.26;98526.69;2077515;83;21287;-78
2021/12/24 18:30:30;;;;;;;6.47;4.58;;;;;;;0.30;85.35;98533.16;2079313;83;21036;-77
2021/12/24 18:33:33;;;;;;;5.17;3.92;;;;;;;0.27;85.39;98531.66;2068342;83;21150;-77
2021/12/24 18:36:37;;;;;;;10.40;5.30;;;;;;;0.25;85.45;98533.57;2067263;83;21130;-76
2021/12/24 18:39:38;;;;;;;9.03;6.08;;;;;;;0.23;85.48;98536.82;2071651;83;21011;-77
2021/12/24 18:42:40;;;;;;;9.28;5.60;;;;;;;0.23;85.52;98547.26;2078083;83;21068;-77
2021/12/24 18:45:45;;;;;;;9.05;6.67;;;;;;;0.20;85.60;98556.18;2087596;82;21306;-76
2021/12/24 18:48:46;;;;;;;8.88;6.33;;;;;;;0.20;85.65;98558.79;2083252;83;20992;-77
2021/12/24 18:51:48;;;;;;;11.20;6.37;;;;;;;0.19;85.72;98566.73;2079504;83;21017;-77
2021/12/24 18:54:49;;;;;;;7.10;5.65;;;;;;;0.18;85.77;98577.66;2062158;83;21040;-77
2021/12/24 18:57:52;;;;;;;6.90;5.25;;;;;;;0.15;85.85;98586.25;2063835;83;21020;-77
2021/12/24 19:00:55;;;;;;;6.10;4.53;;;;;;;0.18;85.91;98602.93;2080924;83;21105;-78
2021/12/24 19:03:56;;;;;;;6.17;4.62;;;;;;;0.19;85.99;98617.61;2083035;83;21673;-77
2021/12/24 19:06:58;;;;;;;5.67;3.70;;;;;;;0.18;86.00;98600.32;2079784;82;21075;-78
2021/12/24 19:09:59;;;;;;;5.67;4.20;;;;;;;0.17;85.99;98602.56;2080571;83;21633;-79
2021/12/24 19:13:01;;;;;;;7.03;4.95;;;;;;;0.17;86.01;98616.91;2073284;83;21061;-77
2021/12/24 19:16:04;;;;;;;6.60;5.40;;;;;;;0.18;86.07;98627.71;2082643;83;21647;-77
2021/12/24 19:19:05;;;;;;;9.45;7.25;;;;;;;0.19;86.11;98642.39;2088423;82;20991;-77
2021/12/24 19:22:07;;;;;;;15.48;9.03;;;;;;;0.16;86.03;98646.58;2090370;82;21167;-77
2021/12/24 19:25:09;;;;;;;21.27;11.78;;;;;;;0.13;86.06;98640.33;2080634;83;21852;-78
2021/12/24 19:28:11;;;;;;;27.27;13.48;;;;;;;0.11;86.07;98641.76;2067494;83;21085;-76
2021/12/24 19:31:13;;;;;;;18.42;9.93;;;;;;;0.10;86.13;98651.04;2080962;83;21057;-77
2021/12/24 19:34:15;;;;;;;19.98;8.90;;;;;;;0.09;86.23;98668.48;2080842;82;21085;-76
2021/12/24 19:37:17;;;;;;;46.92;18.95;;;;;;;0.08;86.23;98650.34;2068191;83;21357;-77
2021/12/24 19:40:21;;;;;;;31.87;12.43;;;;;;;0.08;86.30;98664.69;2080561;82;21026;-76
2021/12/24 19:43:22;;;;;;;31.65;13.08;;;;;;;0.10;86.33;98679.73;2098664;82;21103;-77
2021/12/24 19:46:24;;;;;;;17.23;8.45;;;;;;;0.10;86.32;98688.38;2077488;83;21096;-76
2021/12/24 19:49:25;;;;;;;9.98;6.75;;;;;;;0.11;86.36;98697.02;2074039;83;21128;-76
2021/12/24 19:52:27;;;;;;;11.75;7.65;;;;;;;0.11;86.40;98717.89;2082654;83;21020;-77
2021/12/24 19:55:29;;;;;;;14.78;7.45;;;;;;;0.08;86.49;98738.53;2077650;83;22349;-77
2021/12/24 19:58:30;;;;;;;9.35;7.20;;;;;;;0.07;86.72;98744.72;2085074;83;21017;-77
2021/12/24 20:01:33;;;;;;;12.20;6.37;;;;;;;0.04;86.64;98739.78;2072266;83;21085;-77
2021/12/24 20:04:35;;;;;;;7.62;5.62;;;;;;;0.04;86.66;98723.31;2074267;83;21843;-77
2021/12/24 20:07:37;;;;;;;6.83;4.85;;;;;;;0.04;86.64;98737.17;2086404;83;21010;-77
2021/12/24 20:10:40;;;;;;;6.40;4.60;;;;;;;0.06;86.62;98740.48;2076412;82;21093;-77
2021/12/24 20:13:43;;;;;;;5.70;4.33;;;;;;;0.08;86.64;98744.23;2079416;83;21097;-77
2021/12/24 20:16:49;;;;;;;7.47;5.03;;;;;;;0.04;86.61;98763.25;2088455;83;21061;-77
2021/12/24 20:19:51;;;;;;;8.85;5.90;;;;;;;0.03;86.77;98766.83;2057361;83;21087;-77
2021/12/24 20:22:53;;;;;;;12.50;8.60;;;;;;;0.02;86.79;98761.73;2060019;83;21146;-76
2021/12/24 20:25:57;;;;;;;8.13;5.72;;;;;;;0.00;86.79;98776.22;2088297;83;21098;-77
2021/12/24 20:28:58;;;;;;;7.58;5.67;;;;;;;-0.01;86.86;98788.41;2075742;83;21074;-77
2021/12/24 20:32:00;;;;;;;8.53;5.65;;;;;;;-0.02;86.89;98775.52;2071276;83;21033;-77
2021/12/24 20:35:04;;;;;;;8.78;6.15;;;;;;;0.01;86.95;98786.17;2078882;83;21033;-77
2021/12/24 20:38:06;;;;;;;9.25;6.40;;;;;;;-0.01;86.96;98784.50;2079659;83;21040;-78
2021/12/24 20:41:09;;;;;;;9.33;6.37;;;;;;;-0.01;86.99;98790.20;2070111;83;21278;-77
2021/12/24 20:44:11;;;;;;;9.95;6.40;;;;;;;0.02;87.08;98817.31;2061679;83;21868;-76
2021/12/24 20:47:13;;;;;;;8.90;6.35;;;;;;;0.04;87.10;98792.42;2071205;83;21513;-76
2021/12/24 20:50:19;;;;;;;10.28;6.12;;;;;;;-0.01;87.06;98793.62;2082181;83;21597;-78
2021/12/24 20:53:21;;;;;;;8.53;6.60;;;;;;;-0.05;87.09;98791.44;2077545;83;21986;-78
2021/12/24 20:56:22;;;;;;;8.40;6.08;;;;;;;-0.08;87.12;98804.25;2071406;83;21061;-77
2021/12/24 20:59:24;;;;;;;6.90;6.08;;;;;;;-0.09;87.16;98801.77;2074127;83;21095;-77
2021/12/24 21:02:28;;;;;;;8.93;5.30;;;;;;;-0.12;87.24;98810.67;2052667;84;21081;-78
2021/12/24 21:05:29;;;;;;;8.90;5.55;;;;;;;-0.12;87.25;98808.06;2072347;83;21110;-78
2021/12/24 21:08:31;;;;;;;9.98;6.15;;;;;;;-0.13;87.26;98815.55;2077720;83;21093;-76
2021/12/24 21:11:33;;;;;;;10.58;6.45;;;;;;;-0.11;87.28;98818.86;2076747;81;21015;-77
2021/12/24 21:14:35;;;;;;;9.45;6.47;;;;;;;-0.07;87.31;98825.45;2084262;83;21055;-77
2021/12/24 21:17:37;;;;;;;10.98;6.45;;;;;;;-0.06;87.38;98838.86;2074270;83;21100;-77
2021/12/24 21:20:39;;;;;;;7.75;5.83;;;;;;;-0.07;87.44;98842.41;2068477;83;21765;-78
2021/12/24 21:23:43;;;;;;;8.73;6.15;;;;;;;-0.10;87.35;98849.19;2080083;83;21611;-77
2021/12/24 21:26:47;;;;;;;9.20;6.22;;;;;;;-0.10;87.39;98845.27;2079416;82;21328;-78
2021/12/24 21:29:49;;;;;;;13.70;7.97;;;;;;;-0.07;87.48;98849.41;2079993;82;21080;-78
2021/12/24 21:32:51;;;;;;;18.37;9.58;;;;;;;-0.06;87.47;98847.13;2077517;83;21861;-77
2021/12/24 21:35:54;;;;;;;25.37;12.10;;;;;;;-0.05;87.44;98850.93;2076946;83;21039;-78
2021/12/24 21:38:56;;;;;;;39.95;13.85;;;;;;;-0.06;87.45;98859.72;2074062;83;21124;-78
2021/12/24 21:42:01;;;;;;;36.90;15.15;;;;;;;-0.06;87.52;98853.66;2074072;83;21109;-77
2021/12/24 21:45:05;;;;;;;46.88;19.15;;;;;;;-0.09;87.48;98861.25;2063464;84;21135;-78
2021/12/24 21:48:07;;;;;;;45.15;16.90;;;;;;;-0.10;87.56;98866.13;2065540;83;21064;-77
2021/12/24 21:51:10;;;;;;;34.98;14.68;;;;;;;-0.10;87.56;98864.83;2061926;83;21072;-77
2021/12/24 21:54:11;;;;;;;17.85;7.92;;;;;;;-0.08;87.59;98870.75;2080890;83;21390;-77
2021/12/24 21:57:13;;;;;;;9.23;5.72;;;;;;;-0.10;87.62;98870.53;2090820;82;21115;-77
2021/12/24 22:00:19;;;;;;;9.18;6.28;;;;;;;-0.10;87.57;98866.13;2082709;83;21085;-77
2021/12/24 22:03:34;;;;;;;11.08;6.12;;;;;;;-0.10;87.54;98862.70;2078551;83;21875;-76